createdAt,value
2016-12-23T00:00:05.102Z,34.22
2016-12-23T00:00:45.635Z,34.41
2016-12-23T00:01:26.163Z,34.22
2016-12-23T00:02:06.686Z,34.31
2016-12-23T00:02:47.214Z,34.41
2016-12-23T00:03:27.744Z,34.5
2016-12-23T00:04:08.278Z,34.5
2016-12-23T00:04:48.800Z,34.59
2016-12-23T00:05:29.326Z,34.69
2016-12-23T00:06:09.862Z,34.5
2016-12-23T00:06:50.397Z,34.59
2016-12-23T00:07:30.941Z,34.69
2016-12-23T00:08:11.468Z,34.59
2016-12-23T00:08:51.995Z,34.5
2016-12-23T00:09:32.532Z,34.41
2016-12-23T00:10:13.065Z,34.5
2016-12-23T00:10:53.596Z,34.5
2016-12-23T00:11:34.122Z,34.5
2016-12-23T00:12:14.655Z,34.5
2016-12-23T00:12:55.187Z,34.41
2016-12-23T00:13:35.712Z,34.5
2016-12-23T00:14:16.251Z,34.31
2016-12-23T00:14:56.782Z,34.22
2016-12-23T00:15:37.309Z,34.22
2016-12-23T00:16:17.841Z,34.31
2016-12-23T00:16:58.370Z,34.31
2016-12-23T00:17:38.908Z,34.41
2016-12-23T00:18:19.436Z,34.31
2016-12-23T00:18:59.969Z,34.22
2016-12-23T00:19:40.507Z,34.31
2016-12-23T00:20:21.049Z,34.31
2016-12-23T00:21:01.580Z,34.31
2016-12-23T00:21:42.111Z,34.31
2016-12-23T00:22:22.643Z,34.5
2016-12-23T00:23:03.177Z,34.41
2016-12-23T00:23:43.709Z,34.41
2016-12-23T00:24:24.247Z,34.31
2016-12-23T00:25:04.782Z,34.5
2016-12-23T00:25:45.307Z,34.41
2016-12-23T00:26:25.827Z,34.31
2016-12-23T00:27:06.356Z,34.42
2016-12-23T00:27:46.885Z,34.33
2016-12-23T00:28:27.395Z,34.41
2016-12-23T00:29:07.928Z,34.31
2016-12-23T00:29:48.456Z,34.31
2016-12-23T00:30:28.997Z,34.31
2016-12-23T00:31:09.524Z,34.33
2016-12-23T00:31:50.062Z,34.31
2016-12-23T00:32:30.608Z,34.31
2016-12-23T00:33:11.136Z,34.22
2016-12-23T00:33:51.668Z,34.33
2016-12-23T00:34:32.191Z,34.22
2016-12-23T00:35:12.712Z,34.31
2016-12-23T00:35:53.252Z,34.41
2016-12-23T00:36:33.777Z,34.31
2016-12-23T00:37:14.318Z,34.22
2016-12-23T00:37:54.855Z,34.31
2016-12-23T00:38:35.393Z,34.31
2016-12-23T00:39:15.923Z,34.42
2016-12-23T00:39:56.459Z,34.31
2016-12-23T00:40:36.989Z,34.22
2016-12-23T00:41:17.527Z,34.22
2016-12-23T00:41:58.061Z,34.12
2016-12-23T00:42:38.598Z,34.22
2016-12-23T00:43:19.141Z,34.23
2016-12-23T00:43:59.671Z,34.23
2016-12-23T00:44:40.195Z,34.31
2016-12-23T00:45:20.729Z,34.41
2016-12-23T00:46:01.258Z,34.31
2016-12-23T00:46:41.798Z,34.31
2016-12-23T00:47:22.327Z,34.31
2016-12-23T00:48:02.863Z,34.22
2016-12-23T00:48:43.390Z,34.22
2016-12-23T00:49:23.927Z,34.12
2016-12-23T00:50:04.459Z,34.22
2016-12-23T00:50:44.997Z,34.23
2016-12-23T00:51:25.524Z,34.31
2016-12-23T00:52:06.052Z,34.22
2016-12-23T00:52:46.576Z,34.31
2016-12-23T00:53:27.108Z,34.33
2016-12-23T00:54:07.642Z,34.12
2016-12-23T00:54:48.181Z,34.31
2016-12-23T00:55:28.712Z,34.31
2016-12-23T00:56:09.244Z,34.31
2016-12-23T00:56:49.779Z,34.22
2016-12-23T00:57:30.309Z,34.33
2016-12-23T00:58:10.846Z,34.31
2016-12-23T00:58:51.385Z,34.31
2016-12-23T00:59:31.926Z,34.22
2016-12-23T01:00:12.461Z,34.22
2016-12-23T01:00:52.997Z,34.22
2016-12-23T01:01:33.527Z,34.31
2016-12-23T01:02:14.061Z,34.31
2016-12-23T01:02:54.600Z,34.41
2016-12-23T01:03:35.137Z,34.31
2016-12-23T01:04:15.669Z,34.31
2016-12-23T01:04:56.203Z,34.31
2016-12-23T01:05:36.738Z,34.31
2016-12-23T01:06:17.279Z,34.31
2016-12-23T01:06:57.818Z,34.33
2016-12-23T01:07:38.351Z,34.41
2016-12-23T01:08:18.883Z,34.41
2016-12-23T01:08:59.423Z,34.31
2016-12-23T01:09:39.964Z,34.31
2016-12-23T01:10:20.492Z,34.23
2016-12-23T01:11:01.020Z,34.31
2016-12-23T01:11:41.557Z,34.31
2016-12-23T01:12:22.082Z,34.41
2016-12-23T01:13:02.622Z,34.31
2016-12-23T01:13:43.157Z,34.22
2016-12-23T01:14:23.693Z,34.41
2016-12-23T01:15:04.221Z,34.31
2016-12-23T01:15:44.756Z,34.31
2016-12-23T01:16:25.266Z,34.23
2016-12-23T01:17:05.797Z,34.22
2016-12-23T01:17:46.330Z,34.31
2016-12-23T01:18:26.856Z,34.31
2016-12-23T01:19:07.397Z,34.23
2016-12-23T01:19:47.927Z,34.22
2016-12-23T01:20:28.460Z,34.22
2016-12-23T01:21:08.986Z,34.41
2016-12-23T01:21:49.519Z,34.22
2016-12-23T01:22:30.068Z,34.31
2016-12-23T01:23:10.596Z,34.22
2016-12-23T01:23:51.136Z,34.22
2016-12-23T01:24:31.650Z,34.41
2016-12-23T01:25:12.182Z,34.22
2016-12-23T01:25:52.710Z,34.14
2016-12-23T01:26:33.253Z,34.31
2016-12-23T01:27:13.787Z,34.31
2016-12-23T01:27:54.310Z,34.23
2016-12-23T01:28:34.842Z,34.12
2016-12-23T01:29:15.372Z,34.31
2016-12-23T01:29:55.908Z,34.31
2016-12-23T01:30:36.432Z,34.41
2016-12-23T01:31:16.965Z,34.31
2016-12-23T01:31:57.489Z,34.31
2016-12-23T01:32:38.028Z,34.41
2016-12-23T01:33:18.562Z,34.22
2016-12-23T01:33:59.101Z,34.31
2016-12-23T01:34:39.627Z,34.31
2016-12-23T01:35:20.165Z,34.22
2016-12-23T01:36:00.693Z,34.31
2016-12-23T01:36:41.235Z,34.41
2016-12-23T01:37:21.761Z,34.12
2016-12-23T01:38:02.306Z,34.12
2016-12-23T01:38:42.833Z,34.31
2016-12-23T01:39:23.381Z,34.5
2016-12-23T01:40:03.908Z,34.31
2016-12-23T01:40:44.438Z,34.31
2016-12-23T01:41:24.967Z,34.31
2016-12-23T01:42:05.504Z,34.22
2016-12-23T01:42:46.043Z,34.22
2016-12-23T01:43:26.573Z,34.31
2016-12-23T01:44:07.106Z,34.22
2016-12-23T01:44:47.617Z,34.31
2016-12-23T01:45:28.158Z,34.31
2016-12-23T01:46:08.691Z,34.41
2016-12-23T01:46:49.225Z,34.31
2016-12-23T01:47:29.758Z,34.31
2016-12-23T01:48:10.286Z,34.22
2016-12-23T01:48:50.809Z,34.12
2016-12-23T01:49:31.357Z,34.22
2016-12-23T01:50:11.889Z,34.22
2016-12-23T01:50:52.434Z,34.31
2016-12-23T01:51:32.968Z,34.31
2016-12-23T01:52:13.495Z,34.31
2016-12-23T01:52:54.019Z,34.22
2016-12-23T01:53:34.552Z,34.31
2016-12-23T01:54:15.083Z,34.41
2016-12-23T01:54:55.629Z,34.31
2016-12-23T01:55:36.166Z,34.41
2016-12-23T01:56:16.700Z,34.31
2016-12-23T01:56:57.232Z,34.22
2016-12-23T01:57:37.759Z,34.22
2016-12-23T01:58:18.288Z,34.31
2016-12-23T01:58:58.825Z,34.31
2016-12-23T01:59:39.354Z,34.31
2016-12-23T02:00:19.883Z,34.41
2016-12-23T02:01:00.427Z,34.31
2016-12-23T02:01:40.974Z,34.31
2016-12-23T02:02:21.511Z,34.31
2016-12-23T02:03:02.036Z,34.41
2016-12-23T02:03:42.582Z,34.22
2016-12-23T02:04:23.117Z,34.31
2016-12-23T02:05:03.647Z,34.41
2016-12-23T02:05:44.180Z,34.31
2016-12-23T02:06:24.707Z,34.5
2016-12-23T02:07:05.239Z,34.22
2016-12-23T02:07:45.778Z,34.31
2016-12-23T02:08:26.314Z,34.22
2016-12-23T02:09:06.838Z,34.31
2016-12-23T02:09:47.375Z,34.41
2016-12-23T02:10:27.912Z,34.22
2016-12-23T02:11:08.438Z,34.31
2016-12-23T02:11:48.971Z,34.31
2016-12-23T02:12:29.514Z,34.22
2016-12-23T02:13:10.052Z,34.22
2016-12-23T02:13:50.586Z,34.31
2016-12-23T02:14:31.130Z,34.31
2016-12-23T02:15:11.657Z,34.22
2016-12-23T02:15:52.189Z,34.31
2016-12-23T02:16:32.724Z,34.31
2016-12-23T02:17:13.255Z,34.31
2016-12-23T02:17:53.784Z,34.31
2016-12-23T02:18:34.330Z,34.31
2016-12-23T02:19:14.858Z,34.12
2016-12-23T02:19:55.388Z,34.22
2016-12-23T02:20:35.919Z,34.31
2016-12-23T02:21:16.446Z,34.22
2016-12-23T02:21:56.973Z,34.31
2016-12-23T02:22:37.510Z,34.22
2016-12-23T02:23:18.033Z,34.31
2016-12-23T02:23:58.569Z,34.22
2016-12-23T02:24:39.109Z,34.31
2016-12-23T02:25:19.640Z,34.31
2016-12-23T02:26:00.176Z,34.41
2016-12-23T02:26:40.707Z,34.41
2016-12-23T02:27:21.239Z,34.22
2016-12-23T02:28:01.764Z,34.22
2016-12-23T02:28:42.284Z,34.41
2016-12-23T02:29:22.816Z,34.31
2016-12-23T02:30:03.356Z,34.31
2016-12-23T02:30:43.890Z,34.41
2016-12-23T02:31:24.432Z,34.31
2016-12-23T02:32:04.960Z,34.31
2016-12-23T02:32:45.501Z,34.31
2016-12-23T02:33:26.028Z,34.41
2016-12-23T02:34:06.557Z,34.41
2016-12-23T02:34:47.096Z,34.31
2016-12-23T02:35:27.633Z,34.41
2016-12-23T02:36:08.164Z,34.31
2016-12-23T02:36:48.692Z,34.41
2016-12-23T02:37:29.230Z,34.5
2016-12-23T02:38:09.761Z,34.5
2016-12-23T02:38:50.281Z,34.5
2016-12-23T02:39:30.810Z,34.41
2016-12-23T02:40:11.338Z,34.41
2016-12-23T02:40:51.874Z,34.5
2016-12-23T02:41:32.398Z,34.5
2016-12-23T02:42:12.933Z,34.69
2016-12-23T02:42:53.467Z,34.5
2016-12-23T02:43:34.003Z,34.5
2016-12-23T02:44:14.537Z,34.5
2016-12-23T02:44:55.077Z,34.31
2016-12-23T02:45:35.609Z,34.31
2016-12-23T02:46:16.143Z,34.31
2016-12-23T02:46:56.674Z,34.5
2016-12-23T02:47:37.213Z,34.41
2016-12-23T02:48:17.748Z,34.5
2016-12-23T02:48:58.276Z,34.41
2016-12-23T02:49:38.812Z,34.5
2016-12-23T02:50:19.345Z,34.59
2016-12-23T02:50:59.883Z,34.31
2016-12-23T02:51:40.405Z,34.41
2016-12-23T02:52:20.930Z,34.5
2016-12-23T02:53:01.465Z,34.5
2016-12-23T02:53:41.996Z,34.59
2016-12-23T02:54:22.521Z,34.41
2016-12-23T02:55:03.053Z,34.5
2016-12-23T02:55:43.586Z,34.5
2016-12-23T02:56:24.112Z,34.5
2016-12-23T02:57:04.658Z,34.41
2016-12-23T02:57:45.189Z,34.5
2016-12-23T02:58:25.721Z,34.5
2016-12-23T02:59:06.256Z,34.41
2016-12-23T02:59:46.786Z,34.41
2016-12-23T03:00:27.309Z,34.41
2016-12-23T03:01:07.836Z,34.5
2016-12-23T03:01:48.362Z,34.41
2016-12-23T03:02:28.884Z,34.5
2016-12-23T03:03:09.411Z,34.41
2016-12-23T03:03:49.953Z,34.5
2016-12-23T03:04:30.488Z,34.41
2016-12-23T03:05:11.017Z,34.5
2016-12-23T03:05:51.546Z,34.79
2016-12-23T03:06:32.079Z,34.59
2016-12-23T03:07:12.606Z,34.79
2016-12-23T03:07:53.142Z,34.69
2016-12-23T03:08:33.687Z,34.79
2016-12-23T03:09:14.225Z,34.79
2016-12-23T03:09:54.767Z,34.69
2016-12-23T03:10:35.285Z,34.69
2016-12-23T03:11:15.809Z,34.79
2016-12-23T03:11:56.342Z,34.59
2016-12-23T03:12:36.875Z,34.69
2016-12-23T03:13:17.412Z,34.69
2016-12-23T03:13:57.939Z,34.69
2016-12-23T03:14:38.492Z,34.79
2016-12-23T03:15:19.001Z,34.59
2016-12-23T03:15:59.527Z,34.5
2016-12-23T03:16:40.062Z,34.59
2016-12-23T03:17:20.612Z,34.59
2016-12-23T03:18:01.139Z,34.59
2016-12-23T03:18:41.664Z,34.69
2016-12-23T03:19:22.198Z,34.59
2016-12-23T03:20:02.737Z,34.79
2016-12-23T03:20:43.255Z,34.59
2016-12-23T03:21:23.783Z,34.69
2016-12-23T03:22:04.310Z,34.69
2016-12-23T03:22:44.840Z,34.59
2016-12-23T03:23:25.370Z,34.69
2016-12-23T03:24:05.907Z,34.59
2016-12-23T03:24:46.431Z,34.69
2016-12-23T03:25:26.960Z,34.69
2016-12-23T03:26:07.494Z,34.69
2016-12-23T03:26:48.026Z,34.69
2016-12-23T03:27:28.552Z,34.5
2016-12-23T03:28:09.086Z,34.79
2016-12-23T03:28:49.613Z,34.59
2016-12-23T03:29:30.149Z,34.69
2016-12-23T03:30:10.683Z,34.59
2016-12-23T03:30:51.220Z,34.88
2016-12-23T03:31:31.741Z,34.69
2016-12-23T03:32:12.276Z,34.69
2016-12-23T03:32:52.809Z,34.59
2016-12-23T03:33:33.343Z,34.5
2016-12-23T03:34:13.878Z,34.88
2016-12-23T03:34:54.409Z,34.59
2016-12-23T03:35:34.942Z,34.59
2016-12-23T03:36:15.474Z,34.59
2016-12-23T03:36:56.006Z,34.5
2016-12-23T03:37:36.539Z,34.59
2016-12-23T03:38:17.074Z,34.59
2016-12-23T03:38:57.606Z,34.5
2016-12-23T03:39:38.115Z,34.59
2016-12-23T03:40:18.638Z,34.69
2016-12-23T03:40:59.153Z,34.59
2016-12-23T03:41:39.676Z,34.5
2016-12-23T03:42:20.208Z,34.59
2016-12-23T03:43:00.744Z,34.5
2016-12-23T03:43:41.281Z,34.59
2016-12-23T03:44:21.806Z,34.59
2016-12-23T03:45:02.337Z,34.59
2016-12-23T03:45:42.864Z,34.59
2016-12-23T03:46:23.414Z,34.59
2016-12-23T03:47:03.945Z,34.59
2016-12-23T03:47:44.481Z,34.59
2016-12-23T03:48:25.010Z,34.59
2016-12-23T03:49:05.540Z,34.69
2016-12-23T03:49:46.079Z,34.59
2016-12-23T03:50:26.605Z,34.5
2016-12-23T03:51:07.136Z,34.59
2016-12-23T03:51:47.668Z,34.69
2016-12-23T03:52:28.198Z,34.69
2016-12-23T03:53:08.723Z,34.69
2016-12-23T03:53:49.253Z,34.5
2016-12-23T03:54:29.782Z,34.69
2016-12-23T03:55:10.318Z,34.59
2016-12-23T03:55:50.844Z,34.59
2016-12-23T03:56:31.376Z,34.88
2016-12-23T03:57:11.914Z,34.5
2016-12-23T03:57:52.440Z,34.59
2016-12-23T03:58:32.975Z,34.59
2016-12-23T03:59:13.510Z,34.69
2016-12-23T03:59:54.040Z,34.59
2016-12-23T04:00:34.563Z,34.59
2016-12-23T04:01:15.093Z,34.59
2016-12-23T04:01:55.631Z,34.59
2016-12-23T04:02:36.160Z,34.59
2016-12-23T04:03:16.690Z,34.59
2016-12-23T04:03:57.231Z,34.59
2016-12-23T04:04:37.764Z,34.5
2016-12-23T04:05:18.292Z,34.5
2016-12-23T04:05:58.825Z,34.59
2016-12-23T04:06:39.351Z,34.59
2016-12-23T04:07:19.884Z,34.59
2016-12-23T04:08:00.414Z,34.59
2016-12-23T04:08:40.946Z,34.5
2016-12-23T04:09:21.493Z,34.59
2016-12-23T04:10:02.007Z,34.59
2016-12-23T04:10:42.530Z,34.5
2016-12-23T04:11:23.064Z,34.59
2016-12-23T04:12:03.600Z,34.5
2016-12-23T04:12:44.131Z,34.59
2016-12-23T04:13:24.665Z,34.59
2016-12-23T04:14:05.176Z,34.59
2016-12-23T04:14:45.711Z,34.59
2016-12-23T04:15:26.241Z,34.59
2016-12-23T04:16:06.780Z,34.59
2016-12-23T04:16:47.314Z,34.59
2016-12-23T04:17:27.846Z,34.59
2016-12-23T04:18:08.371Z,34.69
2016-12-23T04:18:48.911Z,34.59
2016-12-23T04:19:29.430Z,34.59
2016-12-23T04:20:09.959Z,34.5
2016-12-23T04:20:50.487Z,34.5
2016-12-23T04:21:31.021Z,34.69
2016-12-23T04:22:11.560Z,34.59
2016-12-23T04:22:52.090Z,34.59
2016-12-23T04:23:32.629Z,34.69
2016-12-23T04:24:13.184Z,34.59
2016-12-23T04:24:53.713Z,34.69
2016-12-23T04:25:34.246Z,34.5
2016-12-23T04:26:14.786Z,34.69
2016-12-23T04:26:55.311Z,34.69
2016-12-23T04:27:35.838Z,34.59
2016-12-23T04:28:16.366Z,34.59
2016-12-23T04:28:56.907Z,34.59
2016-12-23T04:29:37.440Z,34.59
2016-12-23T04:30:17.965Z,34.59
2016-12-23T04:30:58.497Z,34.69
2016-12-23T04:31:39.032Z,34.5
2016-12-23T04:32:19.566Z,34.59
2016-12-23T04:33:00.091Z,34.59
2016-12-23T04:33:40.625Z,34.88
2016-12-23T04:34:21.154Z,34.5
2016-12-23T04:35:01.693Z,34.59
2016-12-23T04:35:42.237Z,34.59
2016-12-23T04:36:22.772Z,34.69
2016-12-23T04:37:03.298Z,34.5
2016-12-23T04:37:43.826Z,34.59
2016-12-23T04:38:24.356Z,34.5
2016-12-23T04:39:04.885Z,34.59
2016-12-23T04:39:45.424Z,34.59
2016-12-23T04:40:25.952Z,34.5
2016-12-23T04:41:06.484Z,34.59
2016-12-23T04:41:47.019Z,34.69
2016-12-23T04:42:27.561Z,34.59
2016-12-23T04:43:08.093Z,34.69
2016-12-23T04:43:48.621Z,34.59
2016-12-23T04:44:29.168Z,34.59
2016-12-23T04:45:09.706Z,34.59
2016-12-23T04:45:50.231Z,34.69
2016-12-23T04:46:30.756Z,34.69
2016-12-23T04:47:11.293Z,34.69
2016-12-23T04:47:51.824Z,34.59
2016-12-23T04:48:32.356Z,34.69
2016-12-23T04:49:12.886Z,34.59
2016-12-23T04:49:53.422Z,34.69
2016-12-23T04:50:33.955Z,34.5
2016-12-23T04:51:14.487Z,34.69
2016-12-23T04:51:55.016Z,34.59
2016-12-23T04:52:35.541Z,34.69
2016-12-23T04:53:16.074Z,34.69
2016-12-23T04:53:56.606Z,34.79
2016-12-23T04:54:37.133Z,34.69
2016-12-23T04:55:17.664Z,34.59
2016-12-23T04:55:58.198Z,34.59
2016-12-23T04:56:38.732Z,34.59
2016-12-23T04:57:19.268Z,34.59
2016-12-23T04:57:59.805Z,34.59
2016-12-23T04:58:40.332Z,34.59
2016-12-23T04:59:20.858Z,34.5
2016-12-23T05:00:01.388Z,34.88
2016-12-23T05:00:41.916Z,34.59
2016-12-23T05:01:22.443Z,34.59
2016-12-23T05:02:02.979Z,34.5
2016-12-23T05:02:43.504Z,34.69
2016-12-23T05:03:24.042Z,34.69
2016-12-23T05:04:04.578Z,34.5
2016-12-23T05:04:45.107Z,34.5
2016-12-23T05:05:25.639Z,34.59
2016-12-23T05:06:06.165Z,34.79
2016-12-23T05:06:46.698Z,34.59
2016-12-23T05:07:27.230Z,34.69
2016-12-23T05:08:07.818Z,34.5
2016-12-23T05:08:48.355Z,34.5
2016-12-23T05:09:28.885Z,34.59
2016-12-23T05:10:09.411Z,34.69
2016-12-23T05:10:49.947Z,34.59
2016-12-23T05:11:30.479Z,34.88
2016-12-23T05:12:11.010Z,34.88
2016-12-23T05:12:51.542Z,34.59
2016-12-23T05:13:32.079Z,34.59
2016-12-23T05:14:12.616Z,34.5
2016-12-23T05:14:53.144Z,34.69
2016-12-23T05:15:33.680Z,34.59
2016-12-23T05:16:14.213Z,34.69
2016-12-23T05:16:54.745Z,34.59
2016-12-23T05:17:35.281Z,34.59
2016-12-23T05:18:15.813Z,34.59
2016-12-23T05:18:56.341Z,34.69
2016-12-23T05:19:36.875Z,34.69
2016-12-23T05:20:17.416Z,34.69
2016-12-23T05:20:57.954Z,34.79
2016-12-23T05:21:38.485Z,34.69
2016-12-23T05:22:19.013Z,34.79
2016-12-23T05:22:59.549Z,34.69
2016-12-23T05:23:40.086Z,34.69
2016-12-23T05:24:20.620Z,34.59
2016-12-23T05:25:01.145Z,34.59
2016-12-23T05:25:41.684Z,34.79
2016-12-23T05:26:22.213Z,34.41
2016-12-23T05:27:02.752Z,34.41
2016-12-23T05:27:43.292Z,34.31
2016-12-23T05:28:23.815Z,34.5
2016-12-23T05:29:04.347Z,34.41
2016-12-23T05:29:44.883Z,34.41
2016-12-23T05:30:25.409Z,34.41
2016-12-23T05:31:05.951Z,34.41
2016-12-23T05:31:46.491Z,34.5
2016-12-23T05:32:27.022Z,34.69
2016-12-23T05:33:07.554Z,34.41
2016-12-23T05:33:48.087Z,34.69
2016-12-23T05:34:28.619Z,34.41
2016-12-23T05:35:09.140Z,34.5
2016-12-23T05:35:49.675Z,34.59
2016-12-23T05:36:30.206Z,34.5
2016-12-23T05:37:10.737Z,34.41
2016-12-23T05:37:51.263Z,34.5
2016-12-23T05:38:31.800Z,34.5
2016-12-23T05:39:12.332Z,34.79
2016-12-23T05:39:52.866Z,34.5
2016-12-23T05:40:33.393Z,34.5
2016-12-23T05:41:13.923Z,34.5
2016-12-23T05:41:54.454Z,34.88
2016-12-23T05:42:34.995Z,34.41
2016-12-23T05:43:15.535Z,34.5
2016-12-23T05:43:56.066Z,34.79
2016-12-23T05:44:36.600Z,34.5
2016-12-23T05:45:17.136Z,34.5
2016-12-23T05:45:57.683Z,34.69
2016-12-23T05:46:38.187Z,34.41
2016-12-23T05:47:18.717Z,34.41
2016-12-23T05:47:59.251Z,34.5
2016-12-23T05:48:39.786Z,34.5
2016-12-23T05:49:20.311Z,34.5
2016-12-23T05:50:00.849Z,34.59
2016-12-23T05:50:41.393Z,34.41
2016-12-23T05:51:21.934Z,34.5
2016-12-23T05:52:02.467Z,34.41
2016-12-23T05:52:43.004Z,34.69
2016-12-23T05:53:23.546Z,34.31
2016-12-23T05:54:04.073Z,34.41
2016-12-23T05:54:44.613Z,34.41
2016-12-23T05:55:25.150Z,34.41
2016-12-23T05:56:05.685Z,34.5
2016-12-23T05:56:46.217Z,34.5
2016-12-23T05:57:26.767Z,34.41
2016-12-23T05:58:07.289Z,34.69
2016-12-23T05:58:47.825Z,34.5
2016-12-23T05:59:28.361Z,34.5
2016-12-23T06:00:08.884Z,34.31
2016-12-23T06:00:49.416Z,34.5
2016-12-23T06:01:29.950Z,34.41
2016-12-23T06:02:10.473Z,34.41
2016-12-23T06:02:51.000Z,34.69
2016-12-23T06:03:31.533Z,34.59
2016-12-23T06:04:12.068Z,34.59
2016-12-23T06:04:52.608Z,34.5
2016-12-23T06:05:33.144Z,34.5
2016-12-23T06:06:13.670Z,34.79
2016-12-23T06:06:54.197Z,34.5
2016-12-23T06:07:34.732Z,34.41
2016-12-23T06:08:15.270Z,34.5
2016-12-23T06:08:55.806Z,34.41
2016-12-23T06:09:36.322Z,34.59
2016-12-23T06:10:16.861Z,34.69
2016-12-23T06:10:57.398Z,34.69
2016-12-23T06:11:37.937Z,34.5
2016-12-23T06:12:18.463Z,34.41
2016-12-23T06:12:58.995Z,34.41
2016-12-23T06:13:39.528Z,34.41
2016-12-23T06:14:20.068Z,34.79
2016-12-23T06:15:00.588Z,34.41
2016-12-23T06:15:41.127Z,34.69
2016-12-23T06:16:21.654Z,34.41
2016-12-23T06:17:02.187Z,34.22
2016-12-23T06:17:42.724Z,34.22
2016-12-23T06:18:23.245Z,34.41
2016-12-23T06:19:03.785Z,34.69
2016-12-23T06:19:44.318Z,34.69
2016-12-23T06:20:24.852Z,34.69
2016-12-23T06:21:05.385Z,34.5
2016-12-23T06:21:45.913Z,34.31
2016-12-23T06:22:26.445Z,34.5
2016-12-23T06:23:06.996Z,34.59
2016-12-23T06:23:47.536Z,34.31
2016-12-23T06:24:28.066Z,34.5
2016-12-23T06:25:08.605Z,34.59
2016-12-23T06:25:49.113Z,34.5
2016-12-23T06:26:29.650Z,34.5
2016-12-23T06:27:10.181Z,34.69
2016-12-23T06:27:50.708Z,34.41
2016-12-23T06:28:31.239Z,34.5
2016-12-23T06:29:11.771Z,34.59
2016-12-23T06:29:52.310Z,34.31
2016-12-23T06:30:32.840Z,34.5
2016-12-23T06:31:13.372Z,34.59
2016-12-23T06:31:53.908Z,34.22
2016-12-23T06:32:34.447Z,34.31
2016-12-23T06:33:14.971Z,34.31
2016-12-23T06:33:55.500Z,34.5
2016-12-23T06:34:36.025Z,34.5
2016-12-23T06:35:16.566Z,34.31
2016-12-23T06:35:57.100Z,34.41
2016-12-23T06:36:37.633Z,34.31
2016-12-23T06:37:18.161Z,34.31
2016-12-23T06:37:58.686Z,34.41
2016-12-23T06:38:39.231Z,34.59
2016-12-23T06:39:19.757Z,34.69
2016-12-23T06:40:00.289Z,34.31
2016-12-23T06:40:40.820Z,34.5
2016-12-23T06:41:21.357Z,34.59
2016-12-23T06:42:01.889Z,34.41
2016-12-23T06:42:42.407Z,34.5
2016-12-23T06:43:22.945Z,34.5
2016-12-23T06:44:03.481Z,34.69
2016-12-23T06:44:44.020Z,34.69
2016-12-23T06:45:24.547Z,34.5
2016-12-23T06:46:05.086Z,34.5
2016-12-23T06:46:45.616Z,34.59
2016-12-23T06:47:26.147Z,34.69
2016-12-23T06:48:06.681Z,34.41
2016-12-23T06:48:47.209Z,34.31
2016-12-23T06:49:27.739Z,34.5
2016-12-23T06:50:08.274Z,34.41
2016-12-23T06:50:48.814Z,34.69
2016-12-23T06:51:29.337Z,34.5
2016-12-23T06:52:09.862Z,34.69
2016-12-23T06:52:50.402Z,34.5
2016-12-23T06:53:30.930Z,34.41
2016-12-23T06:54:11.456Z,34.41
2016-12-23T06:54:51.986Z,34.5
2016-12-23T06:55:32.512Z,34.41
2016-12-23T06:56:13.040Z,34.41
2016-12-23T06:56:53.572Z,34.5
2016-12-23T06:57:34.108Z,34.41
2016-12-23T06:58:14.637Z,34.69
2016-12-23T06:58:55.178Z,34.5
2016-12-23T06:59:35.710Z,34.22
2016-12-23T07:00:16.236Z,34.5
2016-12-23T07:00:56.769Z,34.41
2016-12-23T07:01:37.304Z,34.59
2016-12-23T07:02:17.835Z,34.41
2016-12-23T07:02:58.368Z,34.5
2016-12-23T07:03:38.902Z,34.5
2016-12-23T07:04:19.435Z,34.31
2016-12-23T07:04:59.964Z,34.22
2016-12-23T07:05:40.500Z,34.59
2016-12-23T07:06:21.037Z,34.31
2016-12-23T07:07:01.562Z,34.41
2016-12-23T07:07:42.097Z,34.59
2016-12-23T07:08:22.631Z,34.5
2016-12-23T07:09:03.165Z,34.5
2016-12-23T07:09:43.692Z,34.69
2016-12-23T07:10:24.226Z,34.79
2016-12-23T07:11:04.825Z,34.5
2016-12-23T07:11:45.365Z,34.41
2016-12-23T07:12:25.889Z,34.59
2016-12-23T07:13:06.429Z,34.79
2016-12-23T07:13:46.963Z,34.69
2016-12-23T07:14:27.503Z,34.41
2016-12-23T07:15:08.040Z,34.31
2016-12-23T07:15:48.581Z,34.5
2016-12-23T07:16:29.109Z,34.5
2016-12-23T07:17:09.646Z,34.69
2016-12-23T07:17:50.184Z,34.5
2016-12-23T07:18:30.704Z,34.41
2016-12-23T07:19:11.241Z,34.41
2016-12-23T07:19:51.786Z,34.5
2016-12-23T07:20:32.313Z,34.5
2016-12-23T07:21:12.840Z,34.59
2016-12-23T07:21:53.375Z,34.41
2016-12-23T07:22:33.900Z,34.5
2016-12-23T07:23:14.441Z,34.69
2016-12-23T07:23:54.969Z,34.41
2016-12-23T07:24:35.501Z,34.41
2016-12-23T07:25:16.026Z,34.79
2016-12-23T07:25:56.549Z,34.59
2016-12-23T07:26:37.089Z,34.69
2016-12-23T07:27:17.624Z,34.69
2016-12-23T07:27:58.153Z,34.69
2016-12-23T07:28:38.697Z,34.69
2016-12-23T07:29:19.240Z,34.69
2016-12-23T07:29:59.764Z,34.59
2016-12-23T07:30:40.296Z,34.69
2016-12-23T07:31:20.830Z,34.69
2016-12-23T07:32:01.371Z,34.59
2016-12-23T07:32:41.904Z,34.69
2016-12-23T07:33:22.434Z,34.69
2016-12-23T07:34:02.975Z,34.59
2016-12-23T07:34:43.509Z,34.69
2016-12-23T07:35:24.038Z,34.59
2016-12-23T07:36:04.561Z,34.59
2016-12-23T07:36:45.098Z,34.69
2016-12-23T07:37:25.616Z,34.59
2016-12-23T07:38:06.161Z,34.59
2016-12-23T07:38:46.696Z,34.59
2016-12-23T07:39:27.233Z,34.59
2016-12-23T07:40:07.769Z,34.5
2016-12-23T07:40:48.306Z,34.59
2016-12-23T07:41:28.840Z,34.59
2016-12-23T07:42:09.370Z,34.5
2016-12-23T07:42:49.897Z,34.59
2016-12-23T07:43:30.427Z,34.59
2016-12-23T07:44:10.966Z,34.5
2016-12-23T07:44:51.507Z,34.59
2016-12-23T07:45:32.039Z,34.69
2016-12-23T07:46:12.569Z,34.88
2016-12-23T07:46:53.105Z,34.79
2016-12-23T07:47:33.640Z,34.79
2016-12-23T07:48:14.170Z,35.27
2016-12-23T07:48:54.701Z,35.36
2016-12-23T07:49:35.236Z,34.98
2016-12-23T07:50:15.766Z,35.08
2016-12-23T07:50:56.298Z,35.36
2016-12-23T07:51:36.835Z,35.46
2016-12-23T07:52:17.389Z,35.46
2016-12-23T07:52:58.086Z,35.46
2016-12-23T07:53:38.627Z,35.27
2016-12-23T07:54:19.156Z,35.36
2016-12-23T07:54:59.692Z,35.28
2016-12-23T07:55:40.220Z,35.28
2016-12-23T07:56:20.759Z,35.17
2016-12-23T07:57:01.296Z,35.46
2016-12-23T07:57:41.830Z,35.27
2016-12-23T07:58:22.360Z,35.46
2016-12-23T07:59:02.894Z,35.57
2016-12-23T07:59:43.431Z,35.36
2016-12-23T08:00:23.959Z,35.27
2016-12-23T08:01:04.488Z,35.27
2016-12-23T08:01:45.020Z,35.17
2016-12-23T08:02:25.546Z,35.19
2016-12-23T08:03:06.089Z,35.28
2016-12-23T08:03:46.624Z,35.19
2016-12-23T08:04:27.157Z,35.48
2016-12-23T08:05:07.686Z,35.36
2016-12-23T08:05:48.217Z,35.1
2016-12-23T08:06:28.750Z,34.81
2016-12-23T08:07:09.279Z,34.9
2016-12-23T08:07:49.794Z,34.9
2016-12-23T08:08:30.331Z,35.38
2016-12-23T08:09:10.862Z,35.1
2016-12-23T08:09:51.393Z,35.38
2016-12-23T08:10:31.923Z,35.48
2016-12-23T08:11:12.441Z,35.38
2016-12-23T08:11:52.978Z,35.38
2016-12-23T08:12:33.515Z,35.38
2016-12-23T08:13:14.049Z,35.38
2016-12-23T08:13:54.595Z,35.57
2016-12-23T08:14:35.138Z,35.38
2016-12-23T08:15:15.696Z,35.38
2016-12-23T08:15:56.228Z,35.38
2016-12-23T08:16:36.752Z,35.38
2016-12-23T08:17:17.293Z,35.28
2016-12-23T08:17:57.804Z,35.19
2016-12-23T08:18:38.350Z,35.1
2016-12-23T08:19:18.888Z,34.9
2016-12-23T08:19:59.412Z,34.81
2016-12-23T08:20:39.933Z,34.81
2016-12-23T08:21:20.465Z,34.71
2016-12-23T08:22:00.993Z,34.9
2016-12-23T08:22:41.528Z,34.81
2016-12-23T08:23:22.063Z,34.61
2016-12-23T08:24:02.687Z,34.61
2016-12-23T08:24:43.229Z,34.61
2016-12-23T08:25:23.762Z,34.71
2016-12-23T08:26:04.289Z,34.61
2016-12-23T08:26:44.831Z,34.71
2016-12-23T08:27:25.356Z,34.71
2016-12-23T08:28:05.886Z,34.52
2016-12-23T08:28:46.420Z,34.52
2016-12-23T08:29:26.953Z,34.61
2016-12-23T08:30:07.481Z,34.61
2016-12-23T08:30:48.022Z,34.61
2016-12-23T08:31:28.553Z,34.71
2016-12-23T08:32:09.081Z,34.61
2016-12-23T08:32:49.606Z,34.71
2016-12-23T08:33:30.142Z,34.71
2016-12-23T08:34:10.663Z,34.52
2016-12-23T08:34:51.192Z,34.71
2016-12-23T08:35:31.730Z,34.71
2016-12-23T08:36:12.259Z,34.61
2016-12-23T08:36:52.794Z,34.71
2016-12-23T08:37:33.326Z,34.9
2016-12-23T08:38:13.859Z,34.71
2016-12-23T08:38:54.391Z,34.71
2016-12-23T08:39:34.925Z,34.61
2016-12-23T08:40:15.465Z,34.42
2016-12-23T08:40:56.005Z,34.42
2016-12-23T08:41:36.534Z,34.42
2016-12-23T08:42:17.080Z,34.42
2016-12-23T08:42:57.612Z,34.42
2016-12-23T08:43:38.141Z,34.61
2016-12-23T08:44:18.674Z,34.71
2016-12-23T08:44:59.201Z,34.81